sensor_id;sensor_type;location;lat;lon;timestamp;temperature;humidity
16038;DHT22;8123;50.906;6.172;2023-03-12T00:01:29;3.10;99.90
16038;DHT22;8123;50.906;6.172;2023-03-12T00:04:00;2.70;99.90
16038;DHT22;8123;50.906;6.172;2023-03-12T00:06:25;3.10;99.90
16038;DHT22;8123;50.906;6.172;2023-03-12T00:08:51;2.80;99.90
16038;DHT22;8123;50.906;6.172;2023-03-12T00:11:18;2.80;99.90
16038;DHT22;8123;50.906;6.172;2023-03-12T00:13:51;2.80;99.90
16038;DHT22;8123;50.906;6.172;2023-03-12T00:16:17;2.80;99.90
16038;DHT22;8123;50.906;6.172;2023-03-12T00:18:43;2.90;99.90
16038;DHT22;8123;50.906;6.172;2023-03-12T00:21:09;2.90;99.90
16038;DHT22;8123;50.906;6.172;2023-03-12T00:23:35;2.90;99.90
16038;DHT22;8123;50.906;6.172;2023-03-12T00:26:11;2.90;99.90
16038;DHT22;8123;50.906;6.172;2023-03-12T00:28:38;3.00;99.90
16038;DHT22;8123;50.906;6.172;2023-03-12T00:31:20;3.00;99.90
16038;DHT22;8123;50.906;6.172;2023-03-12T00:33:47;3.00;99.90
16038;DHT22;8123;50.906;6.172;2023-03-12T00:36:20;3.00;99.90
16038;DHT22;8123;50.906;6.172;2023-03-12T00:38:48;3.00;99.90
16038;DHT22;8123;50.906;6.172;2023-03-12T00:41:14;3.40;99.90
16038;DHT22;8123;50.906;6.172;2023-03-12T00:43:39;3.10;99.90
16038;DHT22;8123;50.906;6.172;2023-03-12T00:46:05;3.10;99.90
16038;DHT22;8123;50.906;6.172;2023-03-12T00:48:31;3.20;99.90
16038;DHT22;8123;50.906;6.172;2023-03-12T00:50:56;3.20;99.90
16038;DHT22;8123;50.906;6.172;2023-03-12T00:53:22;3.30;99.90
16038;DHT22;8123;50.906;6.172;2023-03-12T00:55:48;3.30;99.90
16038;DHT22;8123;50.906;6.172;2023-03-12T00:58:13;3.20;99.90
16038;DHT22;8123;50.906;6.172;2023-03-12T01:00:39;3.20;99.90
16038;DHT22;8123;50.906;6.172;2023-03-12T01:03:04;3.60;99.90
16038;DHT22;8123;50.906;6.172;2023-03-12T01:05:30;3.20;99.90
16038;DHT22;8123;50.906;6.172;2023-03-12T01:07:56;3.10;99.90
16038;DHT22;8123;50.906;6.172;2023-03-12T01:10:21;3.10;99.90
16038;DHT22;8123;50.906;6.172;2023-03-12T01:12:47;3.20;99.90
16038;DHT22;8123;50.906;6.172;2023-03-12T01:15:15;3.20;99.90
16038;DHT22;8123;50.906;6.172;2023-03-12T01:17:41;4.00;99.90
16038;DHT22;8123;50.906;6.172;2023-03-12T01:20:07;3.30;99.90
16038;DHT22;8123;50.906;6.172;2023-03-12T01:22:34;3.30;99.90
16038;DHT22;8123;50.906;6.172;2023-03-12T01:25:00;3.30;99.90
16038;DHT22;8123;50.906;6.172;2023-03-12T01:27:25;3.40;99.90
16038;DHT22;8123;50.906;6.172;2023-03-12T01:29:51;3.60;99.90
16038;DHT22;8123;50.906;6.172;2023-03-12T01:32:17;3.30;99.90
16038;DHT22;8123;50.906;6.172;2023-03-12T01:34:43;3.50;99.90
16038;DHT22;8123;50.906;6.172;2023-03-12T01:37:09;3.20;99.90
16038;DHT22;8123;50.906;6.172;2023-03-12T01:39:35;3.20;99.90
16038;DHT22;8123;50.906;6.172;2023-03-12T01:42:01;3.20;99.90
16038;DHT22;8123;50.906;6.172;2023-03-12T01:44:28;3.30;99.90
16038;DHT22;8123;50.906;6.172;2023-03-12T01:46:54;3.20;99.90
16038;DHT22;8123;50.906;6.172;2023-03-12T01:49:26;3.70;99.90
16038;DHT22;8123;50.906;6.172;2023-03-12T01:52:09;3.30;99.90
16038;DHT22;8123;50.906;6.172;2023-03-12T01:54:46;3.50;99.90
16038;DHT22;8123;50.906;6.172;2023-03-12T01:57:35;3.60;99.90
16038;DHT22;8123;50.906;6.172;2023-03-12T02:00:08;3.60;99.90
16038;DHT22;8123;50.906;6.172;2023-03-12T02:02:37;3.60;99.90
16038;DHT22;8123;50.906;6.172;2023-03-12T02:05:18;3.70;99.90
16038;DHT22;8123;50.906;6.172;2023-03-12T02:07:47;3.70;99.90
16038;DHT22;8123;50.906;6.172;2023-03-12T02:10:13;3.70;99.90
16038;DHT22;8123;50.906;6.172;2023-03-12T02:12:39;3.80;99.90
16038;DHT22;8123;50.906;6.172;2023-03-12T02:15:06;3.80;99.90
16038;DHT22;8123;50.906;6.172;2023-03-12T02:17:32;3.90;99.90
16038;DHT22;8123;50.906;6.172;2023-03-12T02:20:09;3.90;99.90
16038;DHT22;8123;50.906;6.172;2023-03-12T02:22:40;4.00;99.90
16038;DHT22;8123;50.906;6.172;2023-03-12T02:25:34;4.40;99.90
16038;DHT22;8123;50.906;6.172;2023-03-12T02:28:04;4.10;99.90
16038;DHT22;8123;50.906;6.172;2023-03-12T02:30:30;4.20;99.90
16038;DHT22;8123;50.906;6.172;2023-03-12T02:32:59;4.20;99.90
16038;DHT22;8123;50.906;6.172;2023-03-12T02:35:26;4.20;99.90
16038;DHT22;8123;50.906;6.172;2023-03-12T02:37:54;4.20;99.90
16038;DHT22;8123;50.906;6.172;2023-03-12T02:40:28;4.70;99.90
16038;DHT22;8123;50.906;6.172;2023-03-12T02:42:56;4.50;99.90
16038;DHT22;8123;50.906;6.172;2023-03-12T02:45:22;4.60;99.90
16038;DHT22;8123;50.906;6.172;2023-03-12T02:47:49;4.50;99.90
16038;DHT22;8123;50.906;6.172;2023-03-12T02:50:14;4.40;99.90
16038;DHT22;8123;50.906;6.172;2023-03-12T02:52:40;4.40;99.90
16038;DHT22;8123;50.906;6.172;2023-03-12T02:55:06;4.30;99.90
16038;DHT22;8123;50.906;6.172;2023-03-12T02:57:32;4.40;99.90
16038;DHT22;8123;50.906;6.172;2023-03-12T03:00:05;4.60;99.90
16038;DHT22;8123;50.906;6.172;2023-03-12T03:02:33;4.40;99.90
16038;DHT22;8123;50.906;6.172;2023-03-12T03:04:58;4.40;99.90
16038;DHT22;8123;50.906;6.172;2023-03-12T03:07:24;4.40;99.90
16038;DHT22;8123;50.906;6.172;2023-03-12T03:09:50;4.40;99.90
16038;DHT22;8123;50.906;6.172;2023-03-12T03:12:15;4.50;99.90
16038;DHT22;8123;50.906;6.172;2023-03-12T03:14:41;4.80;99.90
16038;DHT22;8123;50.906;6.172;2023-03-12T03:17:06;4.60;99.90
16038;DHT22;8123;50.906;6.172;2023-03-12T03:19:32;4.50;99.90
16038;DHT22;8123;50.906;6.172;2023-03-12T03:21:58;4.80;99.90
16038;DHT22;8123;50.906;6.172;2023-03-12T03:24:23;4.50;99.90
16038;DHT22;8123;50.906;6.172;2023-03-12T03:26:49;4.60;99.90
16038;DHT22;8123;50.906;6.172;2023-03-12T03:29:14;4.70;99.90
16038;DHT22;8123;50.906;6.172;2023-03-12T03:31:41;4.60;99.90
16038;DHT22;8123;50.906;6.172;2023-03-12T03:34:07;4.90;99.90
16038;DHT22;8123;50.906;6.172;2023-03-12T03:36:32;4.60;99.90
16038;DHT22;8123;50.906;6.172;2023-03-12T03:38:58;5.00;99.90
16038;DHT22;8123;50.906;6.172;2023-03-12T03:41:24;5.30;99.90
16038;DHT22;8123;50.906;6.172;2023-03-12T03:43:50;4.60;99.90
16038;DHT22;8123;50.906;6.172;2023-03-12T03:46:16;4.60;99.90
16038;DHT22;8123;50.906;6.172;2023-03-12T03:48:42;4.60;99.90
16038;DHT22;8123;50.906;6.172;2023-03-12T03:51:09;5.10;99.90
16038;DHT22;8123;50.906;6.172;2023-03-12T03:53:35;4.50;99.90
16038;DHT22;8123;50.906;6.172;2023-03-12T03:56:09;4.50;99.90
16038;DHT22;8123;50.906;6.172;2023-03-12T03:58:35;4.50;99.90
16038;DHT22;8123;50.906;6.172;2023-03-12T04:01:00;4.40;99.90
16038;DHT22;8123;50.906;6.172;2023-03-12T04:03:26;4.50;99.90
16038;DHT22;8123;50.906;6.172;2023-03-12T04:05:57;4.40;99.90
16038;DHT22;8123;50.906;6.172;2023-03-12T04:08:23;4.40;99.90
16038;DHT22;8123;50.906;6.172;2023-03-12T04:10:49;4.30;99.90
16038;DHT22;8123;50.906;6.172;2023-03-12T04:13:14;4.30;99.90
16038;DHT22;8123;50.906;6.172;2023-03-12T04:15:49;4.30;99.90
16038;DHT22;8123;50.906;6.172;2023-03-12T04:18:16;4.30;99.90
16038;DHT22;8123;50.906;6.172;2023-03-12T04:20:41;4.30;99.90
16038;DHT22;8123;50.906;6.172;2023-03-12T04:23:07;4.30;99.90
16038;DHT22;8123;50.906;6.172;2023-03-12T04:25:33;4.30;99.90
16038;DHT22;8123;50.906;6.172;2023-03-12T04:27:59;4.30;99.90
16038;DHT22;8123;50.906;6.172;2023-03-12T04:30:25;4.70;99.90
16038;DHT22;8123;50.906;6.172;2023-03-12T04:32:52;4.30;99.90
16038;DHT22;8123;50.906;6.172;2023-03-12T04:35:18;4.30;99.90
16038;DHT22;8123;50.906;6.172;2023-03-12T04:37:44;4.30;99.90
16038;DHT22;8123;50.906;6.172;2023-03-12T04:40:10;4.40;99.90
16038;DHT22;8123;50.906;6.172;2023-03-12T04:42:36;4.40;99.90
16038;DHT22;8123;50.906;6.172;2023-03-12T04:45:04;4.70;99.90
16038;DHT22;8123;50.906;6.172;2023-03-12T04:47:32;4.40;99.90
16038;DHT22;8123;50.906;6.172;2023-03-12T04:49:58;4.40;99.90
16038;DHT22;8123;50.906;6.172;2023-03-12T04:52:24;4.40;99.90
16038;DHT22;8123;50.906;6.172;2023-03-12T04:54:51;4.40;99.90
16038;DHT22;8123;50.906;6.172;2023-03-12T04:57:17;4.60;99.90
16038;DHT22;8123;50.906;6.172;2023-03-12T04:59:43;4.30;99.90
16038;DHT22;8123;50.906;6.172;2023-03-12T05:02:09;4.30;99.90
16038;DHT22;8123;50.906;6.172;2023-03-12T05:04:34;4.30;99.90
16038;DHT22;8123;50.906;6.172;2023-03-12T05:07:00;4.30;99.90
16038;DHT22;8123;50.906;6.172;2023-03-12T05:09:25;4.30;99.90
16038;DHT22;8123;50.906;6.172;2023-03-12T05:11:51;4.30;99.90
16038;DHT22;8123;50.906;6.172;2023-03-12T05:14:16;4.30;99.90
16038;DHT22;8123;50.906;6.172;2023-03-12T05:16:42;4.40;99.90
16038;DHT22;8123;50.906;6.172;2023-03-12T05:19:08;4.40;99.90
16038;DHT22;8123;50.906;6.172;2023-03-12T05:21:33;4.40;99.90
16038;DHT22;8123;50.906;6.172;2023-03-12T05:23:59;4.40;99.90
16038;DHT22;8123;50.906;6.172;2023-03-12T05:26:29;4.70;99.90
16038;DHT22;8123;50.906;6.172;2023-03-12T05:29:01;4.40;99.90
16038;DHT22;8123;50.906;6.172;2023-03-12T05:31:28;4.30;99.90
16038;DHT22;8123;50.906;6.172;2023-03-12T05:33:58;4.30;99.90
16038;DHT22;8123;50.906;6.172;2023-03-12T05:36:23;4.30;99.90
16038;DHT22;8123;50.906;6.172;2023-03-12T05:38:49;4.40;99.90
16038;DHT22;8123;50.906;6.172;2023-03-12T05:41:23;4.30;99.90
16038;DHT22;8123;50.906;6.172;2023-03-12T05:43:51;4.40;99.90
16038;DHT22;8123;50.906;6.172;2023-03-12T05:46:17;5.20;99.90
16038;DHT22;8123;50.906;6.172;2023-03-12T05:48:43;4.70;99.90
16038;DHT22;8123;50.906;6.172;2023-03-12T05:51:09;4.40;99.90
16038;DHT22;8123;50.906;6.172;2023-03-12T05:53:35;4.40;99.90
16038;DHT22;8123;50.906;6.172;2023-03-12T05:56:06;4.40;99.90
16038;DHT22;8123;50.906;6.172;2023-03-12T05:58:32;4.30;99.90
16038;DHT22;8123;50.906;6.172;2023-03-12T06:00:58;4.30;99.90
16038;DHT22;8123;50.906;6.172;2023-03-12T06:03:24;4.30;99.90
16038;DHT22;8123;50.906;6.172;2023-03-12T06:05:50;4.40;99.90
16038;DHT22;8123;50.906;6.172;2023-03-12T06:08:20;4.40;99.90
16038;DHT22;8123;50.906;6.172;2023-03-12T06:10:46;4.40;99.90
16038;DHT22;8123;50.906;6.172;2023-03-12T06:13:11;4.40;99.90
16038;DHT22;8123;50.906;6.172;2023-03-12T06:15:37;4.40;99.90
16038;DHT22;8123;50.906;6.172;2023-03-12T06:18:03;4.40;99.90
16038;DHT22;8123;50.906;6.172;2023-03-12T06:20:28;4.40;99.90
16038;DHT22;8123;50.906;6.172;2023-03-12T06:22:54;4.50;99.90
16038;DHT22;8123;50.906;6.172;2023-03-12T06:25:20;4.60;99.90
16038;DHT22;8123;50.906;6.172;2023-03-12T06:27:45;4.60;99.90
16038;DHT22;8123;50.906;6.172;2023-03-12T06:30:12;4.50;99.90
16038;DHT22;8123;50.906;6.172;2023-03-12T06:32:37;4.60;99.90
16038;DHT22;8123;50.906;6.172;2023-03-12T06:35:03;4.60;99.90
16038;DHT22;8123;50.906;6.172;2023-03-12T06:37:30;4.70;99.90
16038;DHT22;8123;50.906;6.172;2023-03-12T06:39:56;4.70;99.90
16038;DHT22;8123;50.906;6.172;2023-03-12T06:42:22;4.80;99.90
16038;DHT22;8123;50.906;6.172;2023-03-12T06:44:48;4.80;99.90
16038;DHT22;8123;50.906;6.172;2023-03-12T06:47:14;4.90;99.90
16038;DHT22;8123;50.906;6.172;2023-03-12T06:49:40;5.00;99.90
16038;DHT22;8123;50.906;6.172;2023-03-12T06:52:05;5.10;99.90
16038;DHT22;8123;50.906;6.172;2023-03-12T06:54:31;5.20;99.90
16038;DHT22;8123;50.906;6.172;2023-03-12T06:56:57;5.30;99.90
16038;DHT22;8123;50.906;6.172;2023-03-12T06:59:24;5.60;99.90
16038;DHT22;8123;50.906;6.172;2023-03-12T07:01:50;5.40;99.90
16038;DHT22;8123;50.906;6.172;2023-03-12T07:04:16;6.20;99.90
16038;DHT22;8123;50.906;6.172;2023-03-12T07:06:42;5.90;99.90
16038;DHT22;8123;50.906;6.172;2023-03-12T07:09:08;6.00;99.90
16038;DHT22;8123;50.906;6.172;2023-03-12T07:11:33;5.60;99.90
16038;DHT22;8123;50.906;6.172;2023-03-12T07:13:59;5.60;99.90
16038;DHT22;8123;50.906;6.172;2023-03-12T07:16:26;5.70;99.90
16038;DHT22;8123;50.906;6.172;2023-03-12T07:18:51;6.10;99.90
16038;DHT22;8123;50.906;6.172;2023-03-12T07:21:17;6.50;99.90
16038;DHT22;8123;50.906;6.172;2023-03-12T07:23:48;5.90;99.90
16038;DHT22;8123;50.906;6.172;2023-03-12T07:26:14;6.60;99.90
16038;DHT22;8123;50.906;6.172;2023-03-12T07:28:40;6.10;99.90
16038;DHT22;8123;50.906;6.172;2023-03-12T07:31:06;6.30;99.90
16038;DHT22;8123;50.906;6.172;2023-03-12T07:33:31;6.10;99.90
16038;DHT22;8123;50.906;6.172;2023-03-12T07:35:57;6.40;99.90
16038;DHT22;8123;50.906;6.172;2023-03-12T07:38:24;6.40;99.90
16038;DHT22;8123;50.906;6.172;2023-03-12T07:40:54;6.00;99.90
16038;DHT22;8123;50.906;6.172;2023-03-12T07:43:20;6.30;99.90
16038;DHT22;8123;50.906;6.172;2023-03-12T07:45:46;6.00;99.90
16038;DHT22;8123;50.906;6.172;2023-03-12T07:48:12;6.00;99.90
16038;DHT22;8123;50.906;6.172;2023-03-12T07:50:38;6.40;99.90
16038;DHT22;8123;50.906;6.172;2023-03-12T07:53:04;6.00;99.90
16038;DHT22;8123;50.906;6.172;2023-03-12T07:55:31;6.10;99.90
16038;DHT22;8123;50.906;6.172;2023-03-12T07:57:57;6.60;99.90
16038;DHT22;8123;50.906;6.172;2023-03-12T08:00:24;6.40;99.90
16038;DHT22;8123;50.906;6.172;2023-03-12T08:02:50;6.20;99.90
16038;DHT22;8123;50.906;6.172;2023-03-12T08:05:16;6.30;99.90
16038;DHT22;8123;50.906;6.172;2023-03-12T08:07:42;6.20;99.90
16038;DHT22;8123;50.906;6.172;2023-03-12T08:10:09;6.60;99.90
16038;DHT22;8123;50.906;6.172;2023-03-12T08:12:35;6.30;99.90
16038;DHT22;8123;50.906;6.172;2023-03-12T08:15:06;6.70;99.90
16038;DHT22;8123;50.906;6.172;2023-03-12T08:17:33;6.40;99.90
16038;DHT22;8123;50.906;6.172;2023-03-12T08:19:58;6.50;99.90
16038;DHT22;8123;50.906;6.172;2023-03-12T08:22:24;7.00;99.90
16038;DHT22;8123;50.906;6.172;2023-03-12T08:24:50;6.60;99.90
16038;DHT22;8123;50.906;6.172;2023-03-12T08:27:15;6.90;99.90
16038;DHT22;8123;50.906;6.172;2023-03-12T08:29:41;7.00;99.90
16038;DHT22;8123;50.906;6.172;2023-03-12T08:32:08;6.70;99.90
16038;DHT22;8123;50.906;6.172;2023-03-12T08:34:34;6.80;99.90
16038;DHT22;8123;50.906;6.172;2023-03-12T08:37:01;6.70;99.90
16038;DHT22;8123;50.906;6.172;2023-03-12T08:39:27;7.10;99.90
16038;DHT22;8123;50.906;6.172;2023-03-12T08:41:53;7.20;99.90
16038;DHT22;8123;50.906;6.172;2023-03-12T08:44:20;6.90;99.90
16038;DHT22;8123;50.906;6.172;2023-03-12T08:46:46;7.10;99.90
16038;DHT22;8123;50.906;6.172;2023-03-12T08:49:12;7.50;99.90
16038;DHT22;8123;50.906;6.172;2023-03-12T08:51:38;7.80;99.90
16038;DHT22;8123;50.906;6.172;2023-03-12T08:54:04;7.10;99.90
16038;DHT22;8123;50.906;6.172;2023-03-12T08:56:30;7.20;99.90
16038;DHT22;8123;50.906;6.172;2023-03-12T08:58:57;7.20;99.90
16038;DHT22;8123;50.906;6.172;2023-03-12T09:01:23;7.60;99.90
16038;DHT22;8123;50.906;6.172;2023-03-12T09:03:48;7.40;99.90
16038;DHT22;8123;50.906;6.172;2023-03-12T09:06:16;7.50;99.90
16038;DHT22;8123;50.906;6.172;2023-03-12T09:08:45;7.50;99.90
16038;DHT22;8123;50.906;6.172;2023-03-12T09:11:12;7.70;99.90
16038;DHT22;8123;50.906;6.172;2023-03-12T09:13:40;7.60;99.90
16038;DHT22;8123;50.906;6.172;2023-03-12T09:16:06;7.60;99.90
16038;DHT22;8123;50.906;6.172;2023-03-12T09:18:32;7.60;99.90
16038;DHT22;8123;50.906;6.172;2023-03-12T09:20:58;7.80;99.90
16038;DHT22;8123;50.906;6.172;2023-03-12T09:23:24;8.00;99.90
16038;DHT22;8123;50.906;6.172;2023-03-12T09:25:50;7.90;99.90
16038;DHT22;8123;50.906;6.172;2023-03-12T09:28:16;7.80;99.90
16038;DHT22;8123;50.906;6.172;2023-03-12T09:30:42;7.90;99.90
16038;DHT22;8123;50.906;6.172;2023-03-12T09:33:07;8.10;99.90
16038;DHT22;8123;50.906;6.172;2023-03-12T09:35:33;8.10;99.90
16038;DHT22;8123;50.906;6.172;2023-03-12T09:37:59;8.40;99.90
16038;DHT22;8123;50.906;6.172;2023-03-12T09:40:28;8.30;99.90
16038;DHT22;8123;50.906;6.172;2023-03-12T09:42:57;8.20;99.90
16038;DHT22;8123;50.906;6.172;2023-03-12T09:45:30;8.50;99.90
16038;DHT22;8123;50.906;6.172;2023-03-12T09:47:58;8.20;99.90
16038;DHT22;8123;50.906;6.172;2023-03-12T09:53:08;8.20;99.90
16038;DHT22;8123;50.906;6.172;2023-03-12T09:55:38;8.30;99.90
16038;DHT22;8123;50.906;6.172;2023-03-12T09:58:13;8.40;99.90
16038;DHT22;8123;50.906;6.172;2023-03-12T10:00:41;8.40;99.90
16038;DHT22;8123;50.906;6.172;2023-03-12T10:06:09;8.40;99.90
16038;DHT22;8123;50.906;6.172;2023-03-12T10:11:36;8.50;99.90
16038;DHT22;8123;50.906;6.172;2023-03-12T10:20:01;8.70;99.90
16038;DHT22;8123;50.906;6.172;2023-03-12T10:25:35;8.80;99.90
16038;DHT22;8123;50.906;6.172;2023-03-12T10:31:04;8.90;99.90
16038;DHT22;8123;50.906;6.172;2023-03-12T10:33:58;8.90;99.90
16038;DHT22;8123;50.906;6.172;2023-03-12T10:36:44;8.90;99.90
16038;DHT22;8123;50.906;6.172;2023-03-12T10:39:16;8.90;99.90
16038;DHT22;8123;50.906;6.172;2023-03-12T10:41:43;9.30;99.90
16038;DHT22;8123;50.906;6.172;2023-03-12T10:44:22;9.10;99.90
16038;DHT22;8123;50.906;6.172;2023-03-12T10:47:24;9.10;99.90
16038;DHT22;8123;50.906;6.172;2023-03-12T10:49:52;9.10;99.90
16038;DHT22;8123;50.906;6.172;2023-03-12T10:52:22;9.20;99.90
16038;DHT22;8123;50.906;6.172;2023-03-12T10:54:51;9.20;99.90
16038;DHT22;8123;50.906;6.172;2023-03-12T10:57:18;9.30;99.90
16038;DHT22;8123;50.906;6.172;2023-03-12T10:59:46;9.30;99.90
16038;DHT22;8123;50.906;6.172;2023-03-12T11:02:32;9.50;99.90
16038;DHT22;8123;50.906;6.172;2023-03-12T11:05:00;9.50;99.90
16038;DHT22;8123;50.906;6.172;2023-03-12T11:07:32;9.60;99.90
16038;DHT22;8123;50.906;6.172;2023-03-12T11:12:32;9.40;99.90
16038;DHT22;8123;50.906;6.172;2023-03-12T11:17:43;9.60;99.90
16038;DHT22;8123;50.906;6.172;2023-03-12T11:20:25;9.70;99.90
16038;DHT22;8123;50.906;6.172;2023-03-12T11:22:51;9.80;99.90
16038;DHT22;8123;50.906;6.172;2023-03-12T11:25:26;10.00;99.90
16038;DHT22;8123;50.906;6.172;2023-03-12T11:27:58;10.10;99.90
16038;DHT22;8123;50.906;6.172;2023-03-12T11:30:43;10.30;99.90
16038;DHT22;8123;50.906;6.172;2023-03-12T11:33:10;10.70;99.90
16038;DHT22;8123;50.906;6.172;2023-03-12T11:38:38;10.70;99.90
16038;DHT22;8123;50.906;6.172;2023-03-12T11:41:38;10.70;99.90
16038;DHT22;8123;50.906;6.172;2023-03-12T11:55:38;11.00;99.90
16038;DHT22;8123;50.906;6.172;2023-03-12T11:58:29;11.10;99.90
16038;DHT22;8123;50.906;6.172;2023-03-12T12:03:58;11.10;99.90
16038;DHT22;8123;50.906;6.172;2023-03-12T12:14:52;11.50;99.90
16038;DHT22;8123;50.906;6.172;2023-03-12T12:17:39;11.50;99.90
16038;DHT22;8123;50.906;6.172;2023-03-12T12:20:17;11.40;99.90
16038;DHT22;8123;50.906;6.172;2023-03-12T12:37:04;11.70;99.90
16038;DHT22;8123;50.906;6.172;2023-03-12T12:39:38;11.80;99.90
16038;DHT22;8123;50.906;6.172;2023-03-12T12:42:14;12.10;99.90
16038;DHT22;8123;50.906;6.172;2023-03-12T12:44:53;11.90;99.90
16038;DHT22;8123;50.906;6.172;2023-03-12T12:47:36;12.10;99.90
16038;DHT22;8123;50.906;6.172;2023-03-12T12:50:05;12.10;99.90
16038;DHT22;8123;50.906;6.172;2023-03-12T12:52:32;12.00;99.90
16038;DHT22;8123;50.906;6.172;2023-03-12T13:00:22;12.00;99.90
16038;DHT22;8123;50.906;6.172;2023-03-12T13:02:50;12.00;99.90
16038;DHT22;8123;50.906;6.172;2023-03-12T13:05:24;12.30;99.90
16038;DHT22;8123;50.906;6.172;2023-03-12T13:07:50;11.90;99.90
16038;DHT22;8123;50.906;6.172;2023-03-12T13:12:56;12.00;99.90
16038;DHT22;8123;50.906;6.172;2023-03-12T13:26:30;12.20;99.90
16038;DHT22;8123;50.906;6.172;2023-03-12T13:31:56;12.20;99.90
16038;DHT22;8123;50.906;6.172;2023-03-12T13:36:56;12.40;99.90
16038;DHT22;8123;50.906;6.172;2023-03-12T13:39:34;12.50;99.90
16038;DHT22;8123;50.906;6.172;2023-03-12T13:44:50;12.40;99.90
16038;DHT22;8123;50.906;6.172;2023-03-12T13:47:25;12.30;99.90
16038;DHT22;8123;50.906;6.172;2023-03-12T13:52:31;12.30;99.90
16038;DHT22;8123;50.906;6.172;2023-03-12T13:55:27;12.30;99.90
16038;DHT22;8123;50.906;6.172;2023-03-12T14:00:28;12.50;99.90
16038;DHT22;8123;50.906;6.172;2023-03-12T14:02:59;12.30;99.90
16038;DHT22;8123;50.906;6.172;2023-03-12T14:05:26;12.20;99.90
16038;DHT22;8123;50.906;6.172;2023-03-12T14:10:59;12.30;99.90
16038;DHT22;8123;50.906;6.172;2023-03-12T14:16:42;12.10;99.90
16038;DHT22;8123;50.906;6.172;2023-03-12T14:19:16;12.10;99.90
16038;DHT22;8123;50.906;6.172;2023-03-12T14:21:44;12.10;99.90
16038;DHT22;8123;50.906;6.172;2023-03-12T14:24:50;12.50;99.90
16038;DHT22;8123;50.906;6.172;2023-03-12T14:27:22;12.50;99.90
16038;DHT22;8123;50.906;6.172;2023-03-12T14:30:15;12.20;99.90
16038;DHT22;8123;50.906;6.172;2023-03-12T14:32:45;12.10;99.90
16038;DHT22;8123;50.906;6.172;2023-03-12T14:35:28;12.30;99.90
16038;DHT22;8123;50.906;6.172;2023-03-12T14:38:04;12.10;99.90
16038;DHT22;8123;50.906;6.172;2023-03-12T14:40:47;12.20;99.90
16038;DHT22;8123;50.906;6.172;2023-03-12T14:45:45;12.60;99.90
16038;DHT22;8123;50.906;6.172;2023-03-12T14:48:11;12.10;99.90
16038;DHT22;8123;50.906;6.172;2023-03-12T14:50:39;12.20;99.90
16038;DHT22;8123;50.906;6.172;2023-03-12T14:53:16;12.10;99.90
16038;DHT22;8123;50.906;6.172;2023-03-12T14:55:42;12.10;99.90
16038;DHT22;8123;50.906;6.172;2023-03-12T14:58:17;12.10;99.90
16038;DHT22;8123;50.906;6.172;2023-03-12T15:00:44;11.60;99.90
16038;DHT22;8123;50.906;6.172;2023-03-12T15:03:18;12.30;99.90
16038;DHT22;8123;50.906;6.172;2023-03-12T15:05:45;12.10;99.90
16038;DHT22;8123;50.906;6.172;2023-03-12T15:08:12;12.00;99.90
16038;DHT22;8123;50.906;6.172;2023-03-12T15:10:39;12.00;99.90
16038;DHT22;8123;50.906;6.172;2023-03-12T15:13:04;12.10;99.90
16038;DHT22;8123;50.906;6.172;2023-03-12T15:15:41;12.20;99.90
16038;DHT22;8123;50.906;6.172;2023-03-12T15:18:22;12.30;99.90
16038;DHT22;8123;50.906;6.172;2023-03-12T15:20:49;12.00;99.90
16038;DHT22;8123;50.906;6.172;2023-03-12T15:23:17;12.00;99.90
16038;DHT22;8123;50.906;6.172;2023-03-12T15:25:43;12.30;99.90
16038;DHT22;8123;50.906;6.172;2023-03-12T15:30:36;12.00;99.90
16038;DHT22;8123;50.906;6.172;2023-03-12T15:33:20;12.00;99.90
16038;DHT22;8123;50.906;6.172;2023-03-12T15:36:04;12.00;99.90
16038;DHT22;8123;50.906;6.172;2023-03-12T15:38:32;11.90;99.90
16038;DHT22;8123;50.906;6.172;2023-03-12T15:41:05;11.90;99.90
16038;DHT22;8123;50.906;6.172;2023-03-12T15:43:32;11.80;99.90
16038;DHT22;8123;50.906;6.172;2023-03-12T15:46:02;11.80;99.90
16038;DHT22;8123;50.906;6.172;2023-03-12T15:48:35;11.80;99.90
16038;DHT22;8123;50.906;6.172;2023-03-12T15:51:02;12.10;99.90
16038;DHT22;8123;50.906;6.172;2023-03-12T15:53:32;11.80;99.90
16038;DHT22;8123;50.906;6.172;2023-03-12T15:56:20;12.10;99.90
16038;DHT22;8123;50.906;6.172;2023-03-12T15:58:46;12.10;99.90
16038;DHT22;8123;50.906;6.172;2023-03-12T16:01:22;11.70;99.90
16038;DHT22;8123;50.906;6.172;2023-03-12T16:03:52;11.90;99.90
16038;DHT22;8123;50.906;6.172;2023-03-12T16:06:20;11.70;99.90
16038;DHT22;8123;50.906;6.172;2023-03-12T16:08:54;11.70;99.90
16038;DHT22;8123;50.906;6.172;2023-03-12T16:11:23;11.90;99.90
16038;DHT22;8123;50.906;6.172;2023-03-12T16:13:51;11.60;99.90
16038;DHT22;8123;50.906;6.172;2023-03-12T16:16:17;11.60;99.90
16038;DHT22;8123;50.906;6.172;2023-03-12T16:18:43;11.60;99.90
16038;DHT22;8123;50.906;6.172;2023-03-12T16:21:09;11.90;99.90
16038;DHT22;8123;50.906;6.172;2023-03-12T16:23:35;11.60;99.90
16038;DHT22;8123;50.906;6.172;2023-03-12T16:26:02;11.60;99.90
16038;DHT22;8123;50.906;6.172;2023-03-12T16:28:29;11.60;99.90
16038;DHT22;8123;50.906;6.172;2023-03-12T16:30:55;11.60;99.90
16038;DHT22;8123;50.906;6.172;2023-03-12T16:33:22;11.80;99.90
16038;DHT22;8123;50.906;6.172;2023-03-12T16:35:48;11.50;99.90
16038;DHT22;8123;50.906;6.172;2023-03-12T16:38:14;11.40;99.90
16038;DHT22;8123;50.906;6.172;2023-03-12T16:40:43;11.70;99.90
16038;DHT22;8123;50.906;6.172;2023-03-12T16:43:18;11.70;99.90
16038;DHT22;8123;50.906;6.172;2023-03-12T16:45:46;11.40;99.90
16038;DHT22;8123;50.906;6.172;2023-03-12T16:48:19;11.30;99.90
16038;DHT22;8123;50.906;6.172;2023-03-12T16:50:50;11.20;99.90
16038;DHT22;8123;50.906;6.172;2023-03-12T16:53:17;11.20;99.90
16038;DHT22;8123;50.906;6.172;2023-03-12T16:55:58;11.50;99.90
16038;DHT22;8123;50.906;6.172;2023-03-12T16:58:24;11.20;99.90
16038;DHT22;8123;50.906;6.172;2023-03-12T17:00:52;11.10;99.90
16038;DHT22;8123;50.906;6.172;2023-03-12T17:03:38;11.30;99.90
16038;DHT22;8123;50.906;6.172;2023-03-12T17:06:06;11.20;99.90
16038;DHT22;8123;50.906;6.172;2023-03-12T17:08:32;11.10;99.90
16038;DHT22;8123;50.906;6.172;2023-03-12T17:10:58;11.10;99.90
16038;DHT22;8123;50.906;6.172;2023-03-12T17:13:27;11.10;99.90
16038;DHT22;8123;50.906;6.172;2023-03-12T17:15:53;11.00;99.90
16038;DHT22;8123;50.906;6.172;2023-03-12T17:18:20;11.00;99.90
16038;DHT22;8123;50.906;6.172;2023-03-12T17:20:46;11.00;99.90
16038;DHT22;8123;50.906;6.172;2023-03-12T17:23:12;11.00;99.90
16038;DHT22;8123;50.906;6.172;2023-03-12T17:25:40;10.90;99.90
16038;DHT22;8123;50.906;6.172;2023-03-12T17:28:07;11.00;99.90
16038;DHT22;8123;50.906;6.172;2023-03-12T17:30:34;11.20;99.90
16038;DHT22;8123;50.906;6.172;2023-03-12T17:33:05;10.90;99.90
16038;DHT22;8123;50.906;6.172;2023-03-12T17:35:32;10.80;99.90
16038;DHT22;8123;50.906;6.172;2023-03-12T17:37:58;10.80;99.90
16038;DHT22;8123;50.906;6.172;2023-03-12T17:40:24;10.90;99.90
16038;DHT22;8123;50.906;6.172;2023-03-12T17:42:49;10.80;99.90
16038;DHT22;8123;50.906;6.172;2023-03-12T17:45:30;10.90;99.90
16038;DHT22;8123;50.906;6.172;2023-03-12T17:48:06;10.90;99.90
16038;DHT22;8123;50.906;6.172;2023-03-12T17:50:31;10.90;99.90
16038;DHT22;8123;50.906;6.172;2023-03-12T17:52:57;10.90;99.90
16038;DHT22;8123;50.906;6.172;2023-03-12T17:55:23;10.90;99.90
16038;DHT22;8123;50.906;6.172;2023-03-12T17:57:48;10.80;99.90